createdAt,value
2019-03-31T00:02:20.957Z,5.82
2019-03-31T00:04:52.094Z,5.82
2019-03-31T00:07:22.716Z,5.79
2019-03-31T00:09:53.327Z,5.72
2019-03-31T00:12:24.035Z,5.68
2019-03-31T00:14:54.587Z,5.68
2019-03-31T00:17:25.754Z,5.67
2019-03-31T00:19:56.338Z,5.59
2019-03-31T00:22:26.947Z,5.65
2019-03-31T00:24:57.484Z,5.65
2019-03-31T00:27:28.071Z,5.64
2019-03-31T00:29:58.683Z,5.63
2019-03-31T00:32:29.357Z,5.61
2019-03-31T00:34:59.951Z,5.56
2019-03-31T00:37:30.547Z,5.51
2019-03-31T00:40:01.107Z,5.48
2019-03-31T00:42:31.731Z,5.38
2019-03-31T00:45:02.315Z,5.33
2019-03-31T00:47:32.896Z,5.28
2019-03-31T00:50:03.479Z,5.24
2019-03-31T00:52:34.104Z,5.17
2019-03-31T00:55:04.690Z,5.13
2019-03-31T00:57:35.341Z,5.13
2019-03-31T01:00:07.485Z,5.17
2019-03-31T01:02:38.119Z,5.16
2019-03-31T01:05:08.823Z,5.14
2019-03-31T01:07:39.439Z,5.13
2019-03-31T01:10:10.028Z,5.11
2019-03-31T01:12:40.671Z,5.06
2019-03-31T01:15:16.175Z,5.02
2019-03-31T01:17:47.286Z,4.97
2019-03-31T01:20:17.966Z,4.95
2019-03-31T01:22:48.557Z,4.88
2019-03-31T01:25:19.210Z,4.84
2019-03-31T01:27:49.756Z,4.82
2019-03-31T01:30:22.119Z,4.80
2019-03-31T01:32:53.307Z,4.80
2019-03-31T01:35:23.907Z,4.79
2019-03-31T01:37:54.538Z,4.79
2019-03-31T01:40:25.141Z,4.77
2019-03-31T01:42:55.807Z,4.77
2019-03-31T01:45:26.817Z,4.77
2019-03-31T01:47:57.761Z,4.77
2019-03-31T01:50:28.485Z,4.71
2019-03-31T01:52:59.042Z,4.73
2019-03-31T01:55:29.632Z,4.72
2019-03-31T01:58:00.206Z,4.71
2019-03-31T02:00:45.388Z,4.69
2019-03-31T02:03:16.010Z,4.65
2019-03-31T02:05:46.647Z,4.61
2019-03-31T02:08:17.166Z,4.56
2019-03-31T02:10:47.788Z,4.53
2019-03-31T02:13:18.335Z,4.49
2019-03-31T02:15:48.942Z,4.43
2019-03-31T02:18:19.544Z,4.39
2019-03-31T02:20:50.152Z,4.36
2019-03-31T02:23:20.742Z,4.33
2019-03-31T02:25:51.386Z,4.30
2019-03-31T02:28:21.998Z,4.29
2019-03-31T02:30:52.678Z,4.26
2019-03-31T02:33:23.294Z,4.24
2019-03-31T02:35:53.831Z,4.20
2019-03-31T02:38:24.417Z,4.18
2019-03-31T02:40:54.986Z,4.14
2019-03-31T02:43:25.622Z,4.13
2019-03-31T02:45:56.492Z,4.11
2019-03-31T02:48:27.192Z,4.11
2019-03-31T02:50:57.811Z,4.09
2019-03-31T02:53:28.437Z,4.06
2019-03-31T02:55:59.580Z,4.04
2019-03-31T02:58:31.745Z,4.03
2019-03-31T03:01:02.480Z,4.02
2019-03-31T03:03:34.692Z,4.01
2019-03-31T03:06:06.446Z,3.97
2019-03-31T03:08:37.824Z,3.96
2019-03-31T03:11:09.417Z,3.92
2019-03-31T03:13:41.326Z,3.87
2019-03-31T03:16:29.651Z,3.87
2019-03-31T03:19:00.244Z,3.85
2019-03-31T03:21:30.782Z,3.79
2019-03-31T03:24:02.266Z,3.74
2019-03-31T03:26:32.898Z,3.71
2019-03-31T03:29:03.502Z,3.65
2019-03-31T03:31:34.109Z,3.65
2019-03-31T03:34:04.858Z,3.62
2019-03-31T03:36:35.485Z,3.60
2019-03-31T03:39:07.786Z,3.60
2019-03-31T03:41:38.532Z,3.60
2019-03-31T03:44:09.124Z,3.57
2019-03-31T03:46:39.716Z,3.51
2019-03-31T03:49:10.467Z,3.45
2019-03-31T03:51:41.100Z,3.43
2019-03-31T03:54:11.672Z,3.40
2019-03-31T03:56:42.284Z,3.40
2019-03-31T03:59:12.856Z,3.40
2019-03-31T04:01:43.439Z,3.38
2019-03-31T04:04:14.036Z,3.41
2019-03-31T04:06:44.696Z,3.40
2019-03-31T04:09:15.258Z,3.42
2019-03-31T04:11:45.884Z,3.42
2019-03-31T04:14:16.492Z,3.41
2019-03-31T04:16:47.061Z,3.40
2019-03-31T04:19:17.666Z,3.39
2019-03-31T04:21:48.375Z,3.38
2019-03-31T04:24:19.005Z,3.37
2019-03-31T04:26:49.591Z,3.36
2019-03-31T04:29:20.219Z,3.34
2019-03-31T04:31:50.838Z,3.32
2019-03-31T04:34:21.471Z,3.28
2019-03-31T04:36:52.109Z,3.24
2019-03-31T04:39:22.713Z,3.23
2019-03-31T04:41:53.386Z,3.21
2019-03-31T04:44:23.956Z,3.19
2019-03-31T04:46:54.544Z,3.13
2019-03-31T04:49:25.142Z,3.09
2019-03-31T04:51:55.762Z,3.07
2019-03-31T04:54:26.445Z,3.01
2019-03-31T04:56:57.023Z,2.93
2019-03-31T04:59:27.603Z,2.94
2019-03-31T05:01:58.190Z,2.94
2019-03-31T05:04:28.967Z,2.93
2019-03-31T05:06:59.654Z,2.90
2019-03-31T05:09:30.370Z,2.86
2019-03-31T05:12:00.920Z,2.85
2019-03-31T05:14:31.580Z,2.85
2019-03-31T05:17:02.176Z,2.85
2019-03-31T05:19:33.006Z,2.84
2019-03-31T05:22:03.627Z,2.85
2019-03-31T05:24:34.228Z,2.86
2019-03-31T05:27:04.845Z,2.86
2019-03-31T05:29:35.464Z,2.86
2019-03-31T05:32:06.114Z,2.88
2019-03-31T05:34:36.699Z,2.92
2019-03-31T05:37:07.931Z,2.94
2019-03-31T05:39:38.538Z,2.95
2019-03-31T05:42:09.238Z,3.02
2019-03-31T05:44:39.826Z,3.08
2019-03-31T05:47:10.414Z,3.10
2019-03-31T05:49:40.981Z,3.13
2019-03-31T05:52:11.669Z,3.16
2019-03-31T05:54:42.245Z,3.18
2019-03-31T05:57:17.646Z,3.19
2019-03-31T05:59:48.224Z,3.20
2019-03-31T06:02:18.819Z,3.22
2019-03-31T06:04:49.386Z,3.28
2019-03-31T06:07:20.061Z,3.32
2019-03-31T06:09:50.671Z,3.38
2019-03-31T06:12:21.267Z,3.42
2019-03-31T06:14:51.847Z,3.45
2019-03-31T06:17:22.483Z,3.48
2019-03-31T06:19:53.087Z,3.55
2019-03-31T06:22:23.789Z,3.60
2019-03-31T06:24:54.413Z,3.65
2019-03-31T06:27:25.089Z,3.74
2019-03-31T06:29:55.711Z,3.83
2019-03-31T06:32:26.343Z,3.89
2019-03-31T06:34:57.013Z,3.94
2019-03-31T06:37:27.689Z,3.99
2019-03-31T06:39:58.297Z,4.07
2019-03-31T06:42:29.039Z,4.14
2019-03-31T06:44:59.676Z,4.23
2019-03-31T06:47:33.229Z,4.32
2019-03-31T06:50:04.056Z,4.44
2019-03-31T06:52:34.666Z,4.52
2019-03-31T06:55:06.188Z,4.62
2019-03-31T06:57:36.847Z,4.73
2019-03-31T07:00:08.379Z,4.84
2019-03-31T07:02:38.982Z,4.94
2019-03-31T07:05:09.701Z,5.05
2019-03-31T07:07:40.284Z,5.15
2019-03-31T07:10:11.884Z,5.25
2019-03-31T07:12:48.148Z,5.28
2019-03-31T07:15:20.530Z,5.51
2019-03-31T07:17:51.767Z,5.65
2019-03-31T07:20:22.783Z,5.78
2019-03-31T07:22:54.035Z,5.92
2019-03-31T07:25:24.814Z,6.06
2019-03-31T07:27:55.430Z,6.22
2019-03-31T07:30:26.230Z,6.37
2019-03-31T07:32:57.032Z,6.57
2019-03-31T07:35:27.652Z,6.77
2019-03-31T07:37:58.265Z,6.93
2019-03-31T07:40:29.173Z,7.07
2019-03-31T07:43:00.205Z,7.18
2019-03-31T07:45:30.840Z,7.31
2019-03-31T07:48:01.621Z,7.44
2019-03-31T07:50:32.274Z,7.61
2019-03-31T07:53:02.876Z,7.72
2019-03-31T07:55:33.489Z,7.82
2019-03-31T07:58:04.163Z,7.96
2019-03-31T08:00:34.734Z,8.11
2019-03-31T08:03:06.457Z,8.28
2019-03-31T08:05:37.781Z,8.43
2019-03-31T08:08:08.911Z,8.57
2019-03-31T08:10:39.545Z,8.70
2019-03-31T08:13:10.371Z,8.82
2019-03-31T08:15:40.999Z,8.92
2019-03-31T08:18:11.608Z,9.08
2019-03-31T08:20:42.452Z,9.20
2019-03-31T08:23:13.116Z,9.33
2019-03-31T08:25:43.782Z,9.48
2019-03-31T08:28:14.674Z,9.56
2019-03-31T08:30:46.173Z,9.67
2019-03-31T08:33:16.831Z,9.77
2019-03-31T08:35:48.017Z,9.89
2019-03-31T08:38:19.357Z,9.97
2019-03-31T08:40:50.294Z,10.12
2019-03-31T08:43:20.962Z,10.30
2019-03-31T08:45:51.537Z,10.48
2019-03-31T08:48:22.161Z,10.59
2019-03-31T08:50:52.890Z,10.70
2019-03-31T08:53:23.588Z,10.85
2019-03-31T08:55:54.256Z,11.10
2019-03-31T08:58:24.959Z,11.28
2019-03-31T09:01:01.708Z,11.42
2019-03-31T09:03:32.447Z,11.46
2019-03-31T09:06:03.189Z,11.51
2019-03-31T09:08:33.995Z,11.59
2019-03-31T09:11:04.731Z,11.65
2019-03-31T09:13:35.589Z,11.70
2019-03-31T09:16:06.179Z,11.89
2019-03-31T09:18:36.823Z,12.10
2019-03-31T09:21:07.567Z,12.11
2019-03-31T09:23:38.168Z,12.48
2019-03-31T09:26:08.872Z,12.66
2019-03-31T09:28:39.630Z,12.74
2019-03-31T09:31:10.414Z,12.83
2019-03-31T09:33:41.003Z,12.95
2019-03-31T09:36:16.502Z,13.05
2019-03-31T09:38:43.952Z,13.12
2019-03-31T09:41:14.667Z,13.16
2019-03-31T09:43:45.291Z,13.18
2019-03-31T09:46:15.920Z,13.23
2019-03-31T09:48:46.730Z,13.31
2019-03-31T09:51:17.381Z,13.37
2019-03-31T09:53:47.996Z,13.49
2019-03-31T09:56:18.632Z,13.65
2019-03-31T09:58:49.291Z,13.84
2019-03-31T10:01:20.815Z,13.98
2019-03-31T10:03:51.441Z,14.15
2019-03-31T10:06:30.023Z,14.27
2019-03-31T10:08:54.473Z,14.34
2019-03-31T10:11:25.111Z,14.39
2019-03-31T10:13:55.732Z,14.46
2019-03-31T10:16:26.502Z,14.58
2019-03-31T10:18:57.129Z,14.69
2019-03-31T10:21:28.027Z,14.84
2019-03-31T10:23:58.678Z,15.01
2019-03-31T10:26:32.206Z,15.06
2019-03-31T10:29:01.622Z,15.16
2019-03-31T10:31:32.319Z,15.29
2019-03-31T10:34:03.005Z,15.37
2019-03-31T10:36:43.884Z,15.42
2019-03-31T10:39:07.942Z,15.56
2019-03-31T10:41:39.033Z,15.66
2019-03-31T10:44:09.644Z,15.70
2019-03-31T10:46:40.312Z,15.82
2019-03-31T10:49:10.885Z,15.91
2019-03-31T10:51:41.559Z,15.93
2019-03-31T10:54:12.161Z,15.81
2019-03-31T10:56:42.846Z,15.78
2019-03-31T10:59:13.528Z,15.85
2019-03-31T11:01:44.129Z,15.99
2019-03-31T11:04:14.757Z,16.11
2019-03-31T11:06:58.412Z,16.07
2019-03-31T11:09:17.778Z,16.32
2019-03-31T11:11:48.400Z,16.37
2019-03-31T11:14:19.029Z,16.43
2019-03-31T11:16:49.808Z,16.46
2019-03-31T11:19:20.500Z,16.37
2019-03-31T11:22:10.064Z,16.15
2019-03-31T11:24:41.038Z,16.34
2019-03-31T11:27:11.668Z,16.63
2019-03-31T11:29:42.326Z,16.77
2019-03-31T11:32:13.154Z,16.89
2019-03-31T11:34:43.791Z,17.05
2019-03-31T11:37:14.519Z,17.09
2019-03-31T11:39:45.136Z,17.05
2019-03-31T11:42:15.755Z,17.19
2019-03-31T11:44:46.328Z,17.26
2019-03-31T11:47:16.927Z,17.25
2019-03-31T11:49:47.689Z,17.21
2019-03-31T11:52:18.248Z,17.20
2019-03-31T11:54:48.849Z,17.16
2019-03-31T11:57:19.495Z,17.10
2019-03-31T11:59:50.117Z,17.10
2019-03-31T12:02:27.373Z,17.06
2019-03-31T12:04:53.671Z,17.10
2019-03-31T12:07:28.278Z,17.13
2019-03-31T12:09:57.145Z,17.12
2019-03-31T12:12:27.801Z,17.24
2019-03-31T12:15:00.737Z,17.33
2019-03-31T12:17:30.748Z,17.52
2019-03-31T12:20:01.386Z,17.63
2019-03-31T12:22:32.091Z,17.63
2019-03-31T12:25:02.736Z,17.68
2019-03-31T12:27:33.353Z,17.74
2019-03-31T12:30:04.084Z,17.77
2019-03-31T12:32:38.138Z,17.77
2019-03-31T12:35:07.193Z,17.80
2019-03-31T12:37:42.743Z,17.86
2019-03-31T12:40:15.485Z,17.92
2019-03-31T12:42:46.301Z,18.00
2019-03-31T12:45:16.947Z,18.01
2019-03-31T12:47:47.659Z,18.01
2019-03-31T12:50:18.397Z,18.00
2019-03-31T12:52:51.142Z,18.02
2019-03-31T12:55:21.334Z,18.09
2019-03-31T12:57:52.310Z,18.15
2019-03-31T13:00:22.977Z,18.17
2019-03-31T13:02:53.679Z,18.19
2019-03-31T13:05:24.270Z,18.21
2019-03-31T13:07:56.620Z,18.17
2019-03-31T13:10:27.261Z,18.20
2019-03-31T13:12:57.879Z,18.26
2019-03-31T13:15:31.154Z,18.33
2019-03-31T13:18:02.473Z,18.43
2019-03-31T13:20:34.285Z,18.43
2019-03-31T13:23:04.881Z,18.41
2019-03-31T13:25:35.486Z,18.52
2019-03-31T13:28:06.238Z,18.62
2019-03-31T13:30:36.912Z,18.67
2019-03-31T13:33:07.519Z,18.79
2019-03-31T13:35:38.182Z,18.91
2019-03-31T13:38:11.440Z,18.99
2019-03-31T13:40:41.030Z,19.05
2019-03-31T13:43:11.619Z,19.09
2019-03-31T13:45:42.289Z,19.17
2019-03-31T13:48:12.937Z,19.00
2019-03-31T13:50:43.574Z,18.77
2019-03-31T13:53:16.292Z,18.59
2019-03-31T13:55:46.504Z,18.58
2019-03-31T13:58:18.965Z,18.66
2019-03-31T14:00:49.406Z,18.65
2019-03-31T14:03:20.104Z,18.68
2019-03-31T14:05:50.672Z,18.68
2019-03-31T14:08:25.903Z,18.67
2019-03-31T14:10:53.662Z,18.69
2019-03-31T14:13:24.293Z,18.89
2019-03-31T14:15:54.902Z,19.12
2019-03-31T14:18:25.585Z,19.25
2019-03-31T14:20:56.256Z,19.37
2019-03-31T14:23:26.861Z,19.50
2019-03-31T14:25:57.528Z,19.65
2019-03-31T14:28:28.212Z,19.74
2019-03-31T14:30:58.793Z,19.72
2019-03-31T14:33:29.478Z,19.65
2019-03-31T14:36:00.083Z,19.74
2019-03-31T14:38:40.107Z,19.87
2019-03-31T14:41:03.088Z,20.01
2019-03-31T14:43:33.715Z,20.08
2019-03-31T14:46:04.607Z,20.27
2019-03-31T14:48:35.189Z,20.49
2019-03-31T14:51:05.865Z,20.49
2019-03-31T14:53:36.486Z,20.53
2019-03-31T14:56:07.089Z,19.87
2019-03-31T14:58:37.869Z,19.46
2019-03-31T15:01:08.462Z,20.05
2019-03-31T15:03:39.052Z,20.63
2019-03-31T15:06:09.729Z,20.90
2019-03-31T15:08:53.528Z,21.06
2019-03-31T15:11:12.718Z,21.40
2019-03-31T15:13:43.303Z,21.57
2019-03-31T15:16:13.935Z,21.80
2019-03-31T15:18:44.502Z,22.13
2019-03-31T15:21:15.119Z,22.32
2019-03-31T15:23:45.745Z,22.45
2019-03-31T15:26:16.438Z,22.36
2019-03-31T15:28:47.067Z,22.00
2019-03-31T15:31:17.698Z,21.83
2019-03-31T15:33:48.266Z,21.62
2019-03-31T15:36:18.898Z,21.56
2019-03-31T15:38:49.502Z,21.38
2019-03-31T15:41:21.377Z,21.33
2019-03-31T15:43:52.277Z,21.16
2019-03-31T15:46:24.628Z,21.16
2019-03-31T15:48:55.432Z,20.91
2019-03-31T15:51:26.112Z,20.52
2019-03-31T15:53:56.738Z,20.02
2019-03-31T15:56:27.302Z,19.70
2019-03-31T15:58:57.945Z,19.50
2019-03-31T16:01:28.603Z,19.34
2019-03-31T16:03:59.205Z,19.20
2019-03-31T16:06:30.248Z,19.02
2019-03-31T16:09:00.355Z,18.81
2019-03-31T16:11:30.685Z,18.54
2019-03-31T16:14:00.750Z,18.30
2019-03-31T16:16:31.039Z,18.08
2019-03-31T16:19:01.404Z,18.00
2019-03-31T16:21:31.549Z,17.98
2019-03-31T16:24:01.692Z,17.91
2019-03-31T16:26:32.181Z,17.77
2019-03-31T16:29:02.362Z,17.67
2019-03-31T16:31:32.484Z,17.60
2019-03-31T16:34:02.634Z,17.57
2019-03-31T16:36:32.866Z,17.48
2019-03-31T16:39:05.505Z,17.41
2019-03-31T16:41:36.197Z,17.31
2019-03-31T16:44:06.282Z,17.18
2019-03-31T16:46:39.696Z,17.17
2019-03-31T16:49:08.183Z,17.07
2019-03-31T16:51:38.194Z,16.99
2019-03-31T16:54:08.341Z,16.94
2019-03-31T16:56:38.699Z,16.85
2019-03-31T16:59:08.925Z,16.74
2019-03-31T17:01:39.182Z,16.62
2019-03-31T17:04:12.974Z,16.54
2019-03-31T17:06:43.809Z,16.42
2019-03-31T17:09:13.835Z,16.30
2019-03-31T17:11:43.959Z,16.16
2019-03-31T17:14:14.360Z,16.06
2019-03-31T17:16:44.468Z,15.98
2019-03-31T17:19:14.737Z,15.91
2019-03-31T17:21:44.867Z,15.85
2019-03-31T17:24:14.972Z,15.80
2019-03-31T17:26:45.053Z,15.69
2019-03-31T17:29:15.179Z,15.64
2019-03-31T17:31:45.319Z,15.58
2019-03-31T17:34:15.407Z,15.51
2019-03-31T17:36:45.459Z,15.41
2019-03-31T17:39:15.631Z,15.33
2019-03-31T17:41:45.695Z,15.22
2019-03-31T17:44:15.808Z,15.14
2019-03-31T17:46:45.943Z,15.05
2019-03-31T17:49:16.068Z,14.95
2019-03-31T17:51:46.169Z,14.85
2019-03-31T17:54:16.289Z,14.77
2019-03-31T17:56:46.487Z,14.64
2019-03-31T17:59:16.599Z,14.64
2019-03-31T18:01:46.719Z,14.57
2019-03-31T18:04:16.887Z,14.49
2019-03-31T18:06:46.961Z,14.40
2019-03-31T18:09:17.054Z,14.33
2019-03-31T18:11:47.183Z,14.26
2019-03-31T18:14:17.312Z,14.18
2019-03-31T18:16:47.474Z,14.09
2019-03-31T18:19:17.636Z,13.99
2019-03-31T18:21:47.853Z,13.89
2019-03-31T18:24:18.190Z,13.80
2019-03-31T18:26:48.299Z,13.70
2019-03-31T18:29:18.711Z,13.58
2019-03-31T18:31:49.008Z,13.48
2019-03-31T18:34:19.378Z,13.36
2019-03-31T18:36:49.640Z,13.23
2019-03-31T18:39:20.168Z,13.07
2019-03-31T18:41:50.480Z,12.94
2019-03-31T18:44:20.758Z,12.77
2019-03-31T18:46:51.488Z,12.62
2019-03-31T18:49:23.004Z,12.49
2019-03-31T18:51:53.412Z,12.39
2019-03-31T18:54:39.265Z,12.32
2019-03-31T18:57:34.364Z,12.24
2019-03-31T19:00:25.978Z,12.16
2019-03-31T19:03:06.940Z,12.10
2019-03-31T19:05:59.040Z,12.04
2019-03-31T19:08:54.298Z,11.96
2019-03-31T19:11:50.083Z,11.88
2019-03-31T19:14:40.151Z,11.79
2019-03-31T19:17:27.810Z,11.66
2019-03-31T19:20:29.149Z,11.45
2019-03-31T19:23:21.562Z,11.46
2019-03-31T19:26:01.298Z,11.39
2019-03-31T19:28:44.512Z,11.33
2019-03-31T19:31:31.411Z,11.29
2019-03-31T19:34:23.563Z,11.23
2019-03-31T19:37:26.877Z,11.17
2019-03-31T19:40:16.050Z,11.15
2019-03-31T19:43:03.907Z,11.11
2019-03-31T19:45:59.121Z,11.05
2019-03-31T19:48:43.153Z,11.00
2019-03-31T19:51:35.378Z,10.95
2019-03-31T19:54:30.380Z,10.94
2019-03-31T19:57:30.456Z,10.91
2019-03-31T20:00:18.508Z,10.89
2019-03-31T20:02:58.741Z,10.86
2019-03-31T20:05:51.874Z,10.81
2019-03-31T20:08:52.988Z,10.76
2019-03-31T20:11:54.159Z,10.70
2019-03-31T20:14:43.282Z,10.68
2019-03-31T20:17:31.759Z,10.64
2019-03-31T20:20:19.086Z,10.61
2019-03-31T20:23:06.861Z,10.57
2019-03-31T20:25:45.810Z,10.53
2019-03-31T20:28:34.895Z,10.49
2019-03-31T20:31:26.754Z,10.46
2019-03-31T20:34:10.053Z,10.41
2019-03-31T20:36:48.017Z,10.40
2019-03-31T20:39:40.311Z,10.37
2019-03-31T20:42:23.349Z,10.35
2019-03-31T20:44:53.468Z,10.38
2019-03-31T20:47:23.540Z,10.40
2019-03-31T20:49:53.677Z,10.45
2019-03-31T20:52:23.793Z,10.46
2019-03-31T20:54:53.876Z,10.46
2019-03-31T20:57:24.006Z,10.45
2019-03-31T20:59:54.101Z,10.44
2019-03-31T21:02:24.183Z,10.45
2019-03-31T21:04:54.261Z,10.47
2019-03-31T21:07:24.332Z,10.48
2019-03-31T21:09:54.465Z,10.47
2019-03-31T21:12:24.571Z,10.45
2019-03-31T21:14:54.783Z,10.45
2019-03-31T21:17:24.947Z,10.48
2019-03-31T21:19:54.988Z,10.49
2019-03-31T21:22:25.026Z,10.51
2019-03-31T21:24:55.104Z,10.53
2019-03-31T21:27:25.162Z,10.55
2019-03-31T21:29:55.309Z,10.57
2019-03-31T21:32:25.370Z,10.61
2019-03-31T21:34:58.153Z,10.59
2019-03-31T21:37:28.157Z,10.59
2019-03-31T21:40:04.551Z,10.59
2019-03-31T21:42:34.613Z,10.58
2019-03-31T21:45:04.864Z,10.55
2019-03-31T21:47:35.020Z,10.55
2019-03-31T21:50:05.229Z,10.53
2019-03-31T21:52:35.286Z,10.50
2019-03-31T21:55:05.356Z,10.51
2019-03-31T21:57:35.487Z,10.50
2019-03-31T22:00:07.533Z,10.50
2019-03-31T22:02:37.633Z,10.49
2019-03-31T22:05:08.113Z,10.49
2019-03-31T22:07:38.192Z,10.46
2019-03-31T22:10:08.584Z,10.44
2019-03-31T22:12:38.693Z,10.40
2019-03-31T22:15:08.747Z,10.36
2019-03-31T22:17:38.868Z,10.36
2019-03-31T22:20:08.990Z,10.15
2019-03-31T22:22:39.110Z,10.28
2019-03-31T22:25:09.274Z,10.25
2019-03-31T22:27:39.390Z,10.22
2019-03-31T22:30:09.461Z,10.21
2019-03-31T22:32:39.548Z,10.20
2019-03-31T22:35:09.600Z,10.18
2019-03-31T22:37:39.672Z,10.15
2019-03-31T22:40:09.792Z,10.15
2019-03-31T22:42:39.869Z,10.12
2019-03-31T22:45:10.405Z,10.08
2019-03-31T22:47:40.472Z,10.05
2019-03-31T22:50:10.489Z,10.02
2019-03-31T22:52:40.544Z,10.02
2019-03-31T22:55:10.555Z,10.01
2019-03-31T22:57:40.625Z,9.97
2019-03-31T23:00:17.640Z,9.93
2019-03-31T23:02:47.708Z,9.92
2019-03-31T23:05:17.794Z,9.88
2019-03-31T23:07:48.274Z,9.85
2019-03-31T23:10:18.338Z,9.81
2019-03-31T23:12:48.427Z,9.76
2019-03-31T23:15:18.524Z,9.72
2019-03-31T23:17:48.571Z,9.66
2019-03-31T23:20:19.630Z,9.63
2019-03-31T23:22:49.700Z,9.55
2019-03-31T23:25:20.231Z,9.57
2019-03-31T23:27:50.272Z,9.46
2019-03-31T23:30:20.881Z,9.50
2019-03-31T23:32:50.949Z,9.40
2019-03-31T23:35:23.634Z,9.40
2019-03-31T23:37:53.620Z,9.39
2019-03-31T23:40:23.652Z,9.35
2019-03-31T23:42:53.690Z,9.30
2019-03-31T23:45:23.808Z,9.24
2019-03-31T23:47:53.831Z,9.22
2019-03-31T23:50:23.942Z,9.17
2019-03-31T23:52:54.124Z,9.12
2019-03-31T23:55:24.253Z,9.11
2019-03-31T23:57:54.255Z,9.08
